Aeroporto :
LOGIN :

Iscrizione | Disclaimer

   EN    FR    IT 

 










Sommario :    VFR   VFR Marginale   IFR   IFR Intensivo   IFR Molto Intensivo
Visibilità : 
Base nubi : 
>= 8 km
>= 3000ft
5 / 8 km
1000 / 3000 ft
1500m / 5 km
500 / 1000 ft
800 / 1500m
200 / 500 ft
< 800m
< 200 ft
Simboli :   Temporali  Nebbia  Neve Forte  Precipitazioni Forti  Vento > 20 kt
SIGMETs :   Varie  Temporali  Ghiacco  Turbolenza  Onda orograficha  Ceneri Vulcaniche






- Altitudine del aeroporto : 2096 ft
- Codice IATA : AUR


LFLW - Aurillac

ULTIMO METAR :
  • 220700Z AUTO 12004KT 9999 ////// 03/01 Q1002

METARs OBSOLETI :
  • 220630Z AUTO 09005KT 9999 ////// 03/01 Q1003
  • 220600Z AUTO 10006KT 9999 ////// 03/01 Q1003
  • 220530Z AUTO 09006KT 9999 ////// 02/01 Q1003
  • 220500Z AUTO 09007KT 9999 ////// 03/02 Q1004
  • 220430Z AUTO 10006KT 9999 ////// 02/01 Q1004

TAF TAF LFLW
Valido dal 22 a 06 ore il 22 a 15 ore UTC


220500Z 2206/2215 10008KT CAVOK
BECMG 2208/2210 14015G30KT
TEMPO 2212/2215 14020G40KT BKN014



MetMap, La meteo Aeronautica in un colpo d'occhio ! - Copyright ORBIFLY Dicembre 2007 - Disclaimer

ORBIFLY MET'MAP TEAM :

Programmazione e sviluppo : Alexandra Zaïnal
Concezione e sviluppo : Baudouin d'Aumeries
Co-Programmazione e sviluppo : Marc-Olivier Méhu
Supporto tecnico e logistico : Manuel Goepfert
Aiuto per la traduzione : Arnaldo La Scala

Contatto : metmap@orbifly.com




FONTI E CREDITI :

   NOAA